Gaia — PC4584 — position and weather

sailwx.info

Track history (hours):
 
Tides and Currents Weather Stations Pressure Air Temp Water Temp Dewpoint Dewpoint Depression Visibility Wind Speed Wind Dir Waves Ship Positions

Gaia

Last reported at 2016-Aug-24 17:32 UTC. Time now 2016-Aug-24 18:02 UTC.
Position N 53°42' E 006°37'.

Length 12 m.

Type: Sailing vessel. MMSI: 244615031.

Date/timePositionNaut miles runAvg speedWind from/ knotsBaromVisibWave heightAir tempDewpointWater temp
2016-Aug-24 17:32N 53°42' E 006°37'7 6.6
2016-Aug-24 16:32N 53°44' E 006°48'6 5.6
2016-Aug-24 15:33N 53°45' E 006°57'5 4.9
2016-Aug-24 14:33N 53°46' E 007°05'5 5.0
2016-Aug-24 13:28N 53°47' E 007°14'5 5.1
2016-Aug-24 12:32N 53°48' E 007°21'4 3.4
2016-Aug-24 11:27N 53°50' E 007°27'14 4.6
2016-Aug-24 08:21N 53°59' E 007°46'6 6.8
2016-Aug-24 07:31N 54°04' E 007°50'7 6.8
2016-Aug-24 06:32N 54°10' E 007°54'1 0.4
2016-Aug-24 04:26N 54°11' E 007°54'0 0.0
2016-Aug-24 03:32N 54°11' E 007°54'0 0.0
2016-Aug-24 02:32N 54°11' E 007°54'0 0.0
2016-Aug-24 01:32N 54°11' E 007°54'0 0.0
2016-Aug-24 00:32N 54°11' E 007°54'0 0.0
2016-Aug-23 23:32N 54°11' E 007°54'0 0.0
2016-Aug-23 22:32N 54°11' E 007°54'0 0.0
2016-Aug-23 21:29N 54°11' E 007°54'0 0.0
2016-Aug-23 20:29N 54°11' E 007°54'0 0.0
2016-Aug-23 19:32N 54°11' E 007°54'0 0.0
2016-Aug-23 18:32N 54°11' E 007°54'0 0.0
2016-Aug-23 17:32N 54°11' E 007°54'0 0.0
2016-Aug-23 16:32N 54°11' E 007°54'0 0.0
2016-Aug-23 15:32N 54°11' E 007°54'0 0.0
2016-Aug-23 14:29N 54°11' E 007°54'0 0.0
2016-Aug-23 13:29N 54°11' E 007°54'0 0.0
2016-Aug-23 12:32N 54°11' E 007°54'0 0.0
2016-Aug-23 11:32N 54°11' E 007°54'0 0.0
2016-Aug-23 10:32N 54°11' E 007°54'0 0.0
2016-Aug-23 09:31N 54°11' E 007°54'0 0.0
2016-Aug-23 08:28N 54°11' E 007°54'0 0.0
2016-Aug-23 07:31N 54°11' E 007°54'0 0.0
2016-Aug-23 06:31N 54°11' E 007°54'0 0.0
2016-Aug-23 05:28N 54°11' E 007°54'0 0.0
2016-Aug-23 04:31N 54°11' E 007°54'0 0.0
2016-Aug-23 03:31N 54°11' E 007°54'0 0.0
2016-Aug-23 02:28N 54°11' E 007°54'0 0.0
2016-Aug-23 01:31N 54°11' E 007°54'0 0.0
2016-Aug-23 00:31N 54°11' E 007°54'0 0.0
2016-Aug-22 23:31N 54°11' E 007°54'0 0.0
2016-Aug-22 22:31N 54°11' E 007°54'0 0.0
2016-Aug-22 21:28N 54°11' E 007°54'0 0.0
2016-Aug-22 20:28N 54°11' E 007°54'0 0.0
2016-Aug-22 19:31N 54°11' E 007°54'0 0.0
2016-Aug-22 18:28N 54°11' E 007°54'0 0.0
2016-Aug-22 17:31N 54°11' E 007°54'0 0.0
2016-Aug-22 16:28N 54°11' E 007°54'0 0.0
2016-Aug-22 15:31N 54°11' E 007°54'0 0.0
2016-Aug-22 14:31N 54°11' E 007°54'0 0.0
2016-Aug-22 13:34N 54°11' E 007°54'0 0.0
2016-Aug-22 12:34N 54°11' E 007°54'0 0.0
2016-Aug-22 11:33N 54°11' E 007°54'0 0.0
2016-Aug-22 10:33N 54°11' E 007°54'0 0.0
2016-Aug-22 09:33N 54°11' E 007°54'0 0.0
2016-Aug-22 08:31N 54°11' E 007°54'0 0.0
2016-Aug-22 07:33N 54°11' E 007°54'0 0.0
2016-Aug-22 06:30N 54°11' E 007°54'0 0.0
2016-Aug-22 05:33N 54°11' E 007°54'0 0.0
2016-Aug-22 04:33N 54°11' E 007°54'0 0.0
2016-Aug-22 03:33N 54°11' E 007°54'0 0.0
2016-Aug-22 02:33N 54°11' E 007°54'0 0.0
2016-Aug-22 01:33N 54°11' E 007°54'0 0.0
2016-Aug-22 00:33N 54°11' E 007°54'0 0.0
2016-Aug-21 23:33N 54°11' E 007°54'0 0.0
2016-Aug-21 22:23N 54°11' E 007°54'0 0.0
2016-Aug-21 21:32N 54°11' E 007°54'0 0.0
2016-Aug-21 20:32N 54°11' E 007°54'0 0.0
2016-Aug-21 19:32N 54°11' E 007°54'0 0.0
2016-Aug-21 18:32N 54°11' E 007°54'0 0.0
2016-Aug-21 17:32N 54°11' E 007°54'0 0.0
2016-Aug-21 16:32N 54°11' E 007°54'0 0.0
2016-Aug-21 15:32N 54°11' E 007°54'0 0.0
2016-Aug-21 14:32N 54°11' E 007°54'0 0.0
2016-Aug-21 13:32N 54°11' E 007°54'0 0.0
2016-Aug-21 12:29N 54°11' E 007°54'0 0.0
2016-Aug-21 11:32N 54°11' E 007°54'0 0.0
2016-Aug-21 10:29N 54°11' E 007°54'0 0.1
2016-Aug-21 09:32N 54°11' E 007°54'5 5.1
2016-Aug-21 08:33N 54°07' E 007°60'7 7.0
2016-Aug-21 07:33N 54°04' E 008°10'10 8.6
2016-Aug-21 06:21N 53°59' E 008°26'7 8.8
2016-Aug-21 05:33N 53°57' E 008°37'5 1.6
2016-Aug-21 02:18N 53°52' E 008°42'0 0.0
2016-Aug-21 01:30N 53°52' E 008°42'0 0.0
2016-Aug-21 00:26N 53°52' E 008°42'0 0.0
2016-Aug-20 23:17N 53°52' E 008°42'0 0.0
2016-Aug-20 21:29N 53°52' E 008°42'0 0.0
2016-Aug-20 19:32N 53°52' E 008°42'2 1.8
2016-Aug-20 18:26N 53°51' E 008°45'9 9.4
2016-Aug-20 17:31N 53°51' E 008°60'6 6.1
2016-Aug-20 16:33N 53°54' E 009°09'1 0.9
2016-Aug-20 15:33N 53°54' E 009°10'43 5.3
2016-Aug-20 07:33N 54°22' E 010°05'3 1.9
2016-Aug-20 06:12N 54°22' E 010°09'1 1.4
2016-Aug-20 05:33N 54°22' E 010°10'2 1.0
2016-Aug-20 03:19N 54°24' E 010°13'0 0.0
2016-Aug-20 01:31N 54°24' E 010°13'0 0.0
2016-Aug-20 00:07N 54°24' E 010°13'0 0.0
2016-Aug-19 13:33N 54°24' E 010°13'0 0.0
2016-Aug-19 12:33N 54°24' E 010°13'0 0.0
2016-Aug-19 11:33N 54°24' E 010°13'0 0.0
2016-Aug-19 10:24N 54°24' E 010°13'0 0.0
2016-Aug-19 09:15N 54°24' E 010°13'0 0.1
2016-Aug-19 08:31N 54°24' E 010°13'0 0.0
2016-Aug-19 07:31N 54°24' E 010°13'0 0.0
2016-Aug-19 06:31N 54°24' E 010°13'0 0.0
2016-Aug-19 05:28N 54°24' E 010°13'0 0.0
2016-Aug-19 04:31N 54°24' E 010°13'0 0.0
2016-Aug-19 03:31N 54°24' E 010°13'0 0.0
2016-Aug-19 02:25N 54°24' E 010°13'0 0.0
2016-Aug-19 01:31N 54°24' E 010°13'0 0.0
2016-Aug-19 00:31N 54°24' E 010°13'0 0.0
2016-Aug-18 23:31N 54°24' E 010°13'0 0.0
2016-Aug-18 22:25N 54°24' E 010°13'0 0.0
2016-Aug-18 21:31N 54°24' E 010°13'0 0.0
2016-Aug-18 20:31N 54°24' E 010°13'0 0.0
2016-Aug-18 19:28N 54°24' E 010°13'0 0.0
2016-Aug-18 18:28N 54°24' E 010°13'0 0.0
2016-Aug-18 17:25N 54°24' E 010°13'2 2.4
2016-Aug-18 16:32N 54°26' E 010°14'25 4.1
2016-Aug-18 10:32N 54°49' E 010°31'4 4.3
2016-Aug-18 09:33N 54°52' E 010°34'6 5.3
2016-Aug-18 08:30N 54°56' E 010°41'1 0.1
2016-Aug-18 00:23N 54°56' E 010°42'0 0.0
2016-Aug-17 23:14N 54°56' E 010°42'0 0.0
2016-Aug-17 22:26N 54°56' E 010°42'0 0.0
2016-Aug-17 20:11N 54°56' E 010°42'0 0.0
2016-Aug-17 19:17N 54°56' E 010°42'0 0.0
2016-Aug-17 15:20N 54°56' E 010°42'0 0.0
2016-Aug-17 14:25N 54°56' E 010°42'0 0.1
2016-Aug-17 13:30N 54°56' E 010°42'5 5.2
2016-Aug-17 12:33N 55°01' E 010°41'1 0.9
2016-Aug-17 11:19N 55°02' E 010°41'0 0.0
2016-Aug-17 10:25N 55°02' E 010°41'0 0.0
2016-Aug-17 09:31N 55°02' E 010°41'0 0.0
2016-Aug-17 08:25N 55°02' E 010°41'0 0.0
2016-Aug-17 06:09N 55°02' E 010°41'0 0.0
2016-Aug-16 18:17N 55°02' E 010°41'0 0.0
2016-Aug-16 17:17N 55°02' E 010°41'0 0.0
2016-Aug-16 16:17N 55°02' E 010°41'0 0.0
2016-Aug-16 14:23N 55°02' E 010°41'1 0.7
2016-Aug-16 13:27N 55°02' E 010°40'2 1.5
2016-Aug-16 12:06N 55°04' E 010°37'0 0.0
2016-Aug-16 10:30N 55°04' E 010°37'0 0.0
2016-Aug-16 09:23N 55°04' E 010°37'0 0.0
2016-Aug-16 08:17N 55°04' E 010°37'0 0.0
2016-Aug-16 07:29N 55°04' E 010°37'0 0.0
2016-Aug-15 20:28N 55°04' E 010°37'0 0.0
2016-Aug-15 18:10N 55°04' E 010°37'0 0.0
2016-Aug-15 17:22N 55°04' E 010°37'0 0.0
2016-Aug-15 16:28N 55°04' E 010°37'0 0.0
2016-Aug-15 15:22N 55°04' E 010°37'1 1.2
2016-Aug-15 14:30N 55°03' E 010°38'4 3.7
2016-Aug-15 13:29N 55°01' E 010°44'7 6.9
2016-Aug-15 12:32N 55°07' E 010°50'  
Track history (hours):
 
Tides and Currents Weather Stations Pressure Air Temp Water Temp Dewpoint Dewpoint Depression Visibility Wind Speed Wind Dir Waves Ship Positions

Gaia

Last reported at 2016-Aug-24 17:32 UTC. Time now 2016-Aug-24 18:02 UTC.
Position N 53°42' E 006°37'.

Length 12 m.

Type: Sailing vessel. MMSI: 244615031.

Date/timePositionNaut miles runAvg speedWind from/ knotsBaromVisibWave heightAir tempDewpointWater temp
2016-Aug-24 17:32N 53°42' E 006°37'7 6.6
2016-Aug-24 16:32N 53°44' E 006°48'6 5.6
2016-Aug-24 15:33N 53°45' E 006°57'5 4.9
2016-Aug-24 14:33N 53°46' E 007°05'5 5.0
2016-Aug-24 13:28N 53°47' E 007°14'5 5.1
2016-Aug-24 12:32N 53°48' E 007°21'4 3.4
2016-Aug-24 11:27N 53°50' E 007°27'14 4.6
2016-Aug-24 08:21N 53°59' E 007°46'6 6.8
2016-Aug-24 07:31N 54°04' E 007°50'7 6.8
2016-Aug-24 06:32N 54°10' E 007°54'1 0.4
2016-Aug-24 04:26N 54°11' E 007°54'0 0.0
2016-Aug-24 03:32N 54°11' E 007°54'0 0.0
2016-Aug-24 02:32N 54°11' E 007°54'0 0.0
2016-Aug-24 01:32N 54°11' E 007°54'0 0.0
2016-Aug-24 00:32N 54°11' E 007°54'0 0.0
2016-Aug-23 23:32N 54°11' E 007°54'0 0.0
2016-Aug-23 22:32N 54°11' E 007°54'0 0.0
2016-Aug-23 21:29N 54°11' E 007°54'0 0.0
2016-Aug-23 20:29N 54°11' E 007°54'0 0.0
2016-Aug-23 19:32N 54°11' E 007°54'0 0.0
2016-Aug-23 18:32N 54°11' E 007°54'0 0.0
2016-Aug-23 17:32N 54°11' E 007°54'0 0.0
2016-Aug-23 16:32N 54°11' E 007°54'0 0.0
2016-Aug-23 15:32N 54°11' E 007°54'0 0.0
2016-Aug-23 14:29N 54°11' E 007°54'0 0.0
2016-Aug-23 13:29N 54°11' E 007°54'0 0.0
2016-Aug-23 12:32N 54°11' E 007°54'0 0.0
2016-Aug-23 11:32N 54°11' E 007°54'0 0.0
2016-Aug-23 10:32N 54°11' E 007°54'0 0.0
2016-Aug-23 09:31N 54°11' E 007°54'0 0.0
2016-Aug-23 08:28N 54°11' E 007°54'0 0.0
2016-Aug-23 07:31N 54°11' E 007°54'0 0.0
2016-Aug-23 06:31N 54°11' E 007°54'0 0.0
2016-Aug-23 05:28N 54°11' E 007°54'0 0.0
2016-Aug-23 04:31N 54°11' E 007°54'0 0.0
2016-Aug-23 03:31N 54°11' E 007°54'0 0.0
2016-Aug-23 02:28N 54°11' E 007°54'0 0.0
2016-Aug-23 01:31N 54°11' E 007°54'0 0.0
2016-Aug-23 00:31N 54°11' E 007°54'0 0.0
2016-Aug-22 23:31N 54°11' E 007°54'0 0.0
2016-Aug-22 22:31N 54°11' E 007°54'0 0.0
2016-Aug-22 21:28N 54°11' E 007°54'0 0.0
2016-Aug-22 20:28N 54°11' E 007°54'0 0.0
2016-Aug-22 19:31N 54°11' E 007°54'0 0.0
2016-Aug-22 18:28N 54°11' E 007°54'0 0.0
2016-Aug-22 17:31N 54°11' E 007°54'0 0.0
2016-Aug-22 16:28N 54°11' E 007°54'0 0.0
2016-Aug-22 15:31N 54°11' E 007°54'0 0.0
2016-Aug-22 14:31N 54°11' E 007°54'0 0.0
2016-Aug-22 13:34N 54°11' E 007°54'0 0.0
2016-Aug-22 12:34N 54°11' E 007°54'0 0.0
2016-Aug-22 11:33N 54°11' E 007°54'0 0.0
2016-Aug-22 10:33N 54°11' E 007°54'0 0.0
2016-Aug-22 09:33N 54°11' E 007°54'0 0.0
2016-Aug-22 08:31N 54°11' E 007°54'0 0.0
2016-Aug-22 07:33N 54°11' E 007°54'0 0.0
2016-Aug-22 06:30N 54°11' E 007°54'0 0.0
2016-Aug-22 05:33N 54°11' E 007°54'0 0.0
2016-Aug-22 04:33N 54°11' E 007°54'0 0.0
2016-Aug-22 03:33N 54°11' E 007°54'0 0.0
2016-Aug-22 02:33N 54°11' E 007°54'0 0.0
2016-Aug-22 01:33N 54°11' E 007°54'0 0.0
2016-Aug-22 00:33N 54°11' E 007°54'0 0.0
2016-Aug-21 23:33N 54°11' E 007°54'0 0.0
2016-Aug-21 22:23N 54°11' E 007°54'0 0.0
2016-Aug-21 21:32N 54°11' E 007°54'0 0.0
2016-Aug-21 20:32N 54°11' E 007°54'0 0.0
2016-Aug-21 19:32N 54°11' E 007°54'0 0.0
2016-Aug-21 18:32N 54°11' E 007°54'0 0.0
2016-Aug-21 17:32N 54°11' E 007°54'0 0.0
2016-Aug-21 16:32N 54°11' E 007°54'0 0.0
2016-Aug-21 15:32N 54°11' E 007°54'0 0.0
2016-Aug-21 14:32N 54°11' E 007°54'0 0.0
2016-Aug-21 13:32N 54°11' E 007°54'0 0.0
2016-Aug-21 12:29N 54°11' E 007°54'0 0.0
2016-Aug-21 11:32N 54°11' E 007°54'0 0.0
2016-Aug-21 10:29N 54°11' E 007°54'0 0.1
2016-Aug-21 09:32N 54°11' E 007°54'5 5.1
2016-Aug-21 08:33N 54°07' E 007°60'7 7.0
2016-Aug-21 07:33N 54°04' E 008°10'10 8.6
2016-Aug-21 06:21N 53°59' E 008°26'7 8.8
2016-Aug-21 05:33N 53°57' E 008°37'5 1.6
2016-Aug-21 02:18N 53°52' E 008°42'0 0.0
2016-Aug-21 01:30N 53°52' E 008°42'0 0.0
2016-Aug-21 00:26N 53°52' E 008°42'0 0.0
2016-Aug-20 23:17N 53°52' E 008°42'0 0.0
2016-Aug-20 21:29N 53°52' E 008°42'0 0.0
2016-Aug-20 19:32N 53°52' E 008°42'2 1.8
2016-Aug-20 18:26N 53°51' E 008°45'9 9.4
2016-Aug-20 17:31N 53°51' E 008°60'6 6.1
2016-Aug-20 16:33N 53°54' E 009°09'1 0.9
2016-Aug-20 15:33N 53°54' E 009°10'43 5.3
2016-Aug-20 07:33N 54°22' E 010°05'3 1.9
2016-Aug-20 06:12N 54°22' E 010°09'1 1.4
2016-Aug-20 05:33N 54°22' E 010°10'2 1.0
2016-Aug-20 03:19N 54°24' E 010°13'0 0.0
2016-Aug-20 01:31N 54°24' E 010°13'0 0.0
2016-Aug-20 00:07N 54°24' E 010°13'0 0.0
2016-Aug-19 13:33N 54°24' E 010°13'0 0.0
2016-Aug-19 12:33N 54°24' E 010°13'0 0.0
2016-Aug-19 11:33N 54°24' E 010°13'0 0.0
2016-Aug-19 10:24N 54°24' E 010°13'0 0.0
2016-Aug-19 09:15N 54°24' E 010°13'0 0.1
2016-Aug-19 08:31N 54°24' E 010°13'0 0.0
2016-Aug-19 07:31N 54°24' E 010°13'0 0.0
2016-Aug-19 06:31N 54°24' E 010°13'0 0.0
2016-Aug-19 05:28N 54°24' E 010°13'0 0.0
2016-Aug-19 04:31N 54°24' E 010°13'0 0.0
2016-Aug-19 03:31N 54°24' E 010°13'0 0.0
2016-Aug-19 02:25N 54°24' E 010°13'0 0.0
2016-Aug-19 01:31N 54°24' E 010°13'0 0.0
2016-Aug-19 00:31N 54°24' E 010°13'0 0.0
2016-Aug-18 23:31N 54°24' E 010°13'0 0.0
2016-Aug-18 22:25N 54°24' E 010°13'0 0.0
2016-Aug-18 21:31N 54°24' E 010°13'0 0.0
2016-Aug-18 20:31N 54°24' E 010°13'0 0.0
2016-Aug-18 19:28N 54°24' E 010°13'0 0.0
2016-Aug-18 18:28N 54°24' E 010°13'0 0.0
2016-Aug-18 17:25N 54°24' E 010°13'2 2.4
2016-Aug-18 16:32N 54°26' E 010°14'25 4.1
2016-Aug-18 10:32N 54°49' E 010°31'4 4.3
2016-Aug-18 09:33N 54°52' E 010°34'6 5.3
2016-Aug-18 08:30N 54°56' E 010°41'1 0.1
2016-Aug-18 00:23N 54°56' E 010°42'0 0.0
2016-Aug-17 23:14N 54°56' E 010°42'0 0.0
2016-Aug-17 22:26N 54°56' E 010°42'0 0.0
2016-Aug-17 20:11N 54°56' E 010°42'0 0.0
2016-Aug-17 19:17N 54°56' E 010°42'0 0.0
2016-Aug-17 15:20N 54°56' E 010°42'0 0.0
2016-Aug-17 14:25N 54°56' E 010°42'0 0.1
2016-Aug-17 13:30N 54°56' E 010°42'5 5.2
2016-Aug-17 12:33N 55°01' E 010°41'1 0.9
2016-Aug-17 11:19N 55°02' E 010°41'0 0.0
2016-Aug-17 10:25N 55°02' E 010°41'0 0.0
2016-Aug-17 09:31N 55°02' E 010°41'0 0.0
2016-Aug-17 08:25N 55°02' E 010°41'0 0.0
2016-Aug-17 06:09N 55°02' E 010°41'0 0.0
2016-Aug-16 18:17N 55°02' E 010°41'0 0.0
2016-Aug-16 17:17N 55°02' E 010°41'0 0.0
2016-Aug-16 16:17N 55°02' E 010°41'0 0.0
2016-Aug-16 14:23N 55°02' E 010°41'1 0.7
2016-Aug-16 13:27N 55°02' E 010°40'2 1.5
2016-Aug-16 12:06N 55°04' E 010°37'0 0.0
2016-Aug-16 10:30N 55°04' E 010°37'0 0.0
2016-Aug-16 09:23N 55°04' E 010°37'0 0.0
2016-Aug-16 08:17N 55°04' E 010°37'0 0.0
2016-Aug-16 07:29N 55°04' E 010°37'0 0.0
2016-Aug-15 20:28N 55°04' E 010°37'0 0.0
2016-Aug-15 18:10N 55°04' E 010°37'0 0.0
2016-Aug-15 17:22N 55°04' E 010°37'0 0.0
2016-Aug-15 16:28N 55°04' E 010°37'0 0.0
2016-Aug-15 15:22N 55°04' E 010°37'1 1.2
2016-Aug-15 14:30N 55°03' E 010°38'4 3.7
2016-Aug-15 13:29N 55°01' E 010°44'7 6.9
2016-Aug-15 12:32N 55°07' E 010°50'  

Dump ship's entire track history